Time;durP1;ratioP1;P1;durP2;ratioP2;P2;SDS_P1;SDS_P2;PMS_P1;PMS_P2;Temp;Humidity;BMP_temperature;BMP_pressure;BME280_temperature;BME280_humidity;BME280_pressure;Samples;Min_cycle;Max_cycle;Signal;HPM_P1;HPM_P2
2021/04/01 00:00:14;;;;;;;79.80;50.43;;;;;;;5.01;69.43;101627.28;1770025;81;21141;-68
2021/04/01 00:02:49;;;;;;;75.87;50.03;;;;;;;4.95;69.56;101621.30;1769949;81;21006;-67
2021/04/01 00:05:17;;;;;;;64.25;43.78;;;;;;;4.90;69.69;101619.25;1770178;81;20943;-67
2021/04/01 00:07:45;;;;;;;55.08;38.25;;;;;;;4.87;69.67;101620.63;1770001;79;20926;-67
2021/04/01 00:10:18;;;;;;;59.60;38.40;;;;;;;4.84;69.60;101621.97;1770034;81;21010;-67
2021/04/01 00:12:46;;;;;;;57.53;39.00;;;;;;;4.80;69.50;101619.01;1770164;79;22242;-68
2021/04/01 00:15:17;;;;;;;54.77;39.67;;;;;;;4.75;69.44;101616.95;1769947;79;20911;-67
2021/04/01 00:17:45;;;;;;;61.95;40.28;;;;;;;4.75;69.61;101620.85;1769988;81;20931;-66
2021/04/01 00:20:15;;;;;;;63.92;39.30;;;;;;;4.71;69.70;101609.69;1769995;79;20996;-66
2021/04/01 00:22:44;;;;;;;69.15;43.15;;;;;;;4.65;69.80;101607.65;1770014;79;20986;-67
2021/04/01 00:25:14;;;;;;;59.83;41.77;;;;;;;4.55;70.03;101600.00;1770010;79;21372;-68
2021/04/01 00:27:43;;;;;;;58.55;40.12;;;;;;;4.47;70.17;101600.62;1770019;81;21014;-67
2021/04/01 00:30:14;;;;;;;60.85;40.25;;;;;;;4.42;70.26;101603.72;1769976;79;20966;-66
2021/04/01 00:32:42;;;;;;;61.55;42.53;;;;;;;4.40;70.19;101600.74;1769981;81;20951;-67
2021/04/01 00:35:11;;;;;;;72.67;48.28;;;;;;;4.34;70.18;101595.23;1769988;80;21021;-69
2021/04/01 00:37:39;;;;;;;73.55;48.73;;;;;;;4.30;70.40;101593.58;1769964;81;21345;-68
2021/04/01 00:40:08;;;;;;;70.90;45.05;;;;;;;4.26;70.44;101593.21;1769926;79;20976;-67
2021/04/01 00:42:37;;;;;;;76.37;51.83;;;;;;;4.25;70.47;101587.62;1769938;81;20943;-67
2021/04/01 00:45:10;;;;;;;92.30;56.37;;;;;;;4.24;70.48;101585.44;1769872;80;20935;-68
2021/04/01 00:47:48;;;;;;;89.60;55.60;;;;;;;4.21;70.74;101579.02;1770398;81;20927;-67
2021/04/01 00:50:22;;;;;;;72.55;50.00;;;;;;;4.16;70.80;101579.55;1769933;79;21197;-68
2021/04/01 00:52:50;;;;;;;76.40;50.25;;;;;;;4.12;70.81;101578.73;1769944;81;21054;-67
2021/04/01 00:55:18;;;;;;;73.10;45.12;;;;;;;4.09;71.04;101584.00;1770035;81;20923;-66
2021/04/01 00:57:50;;;;;;;65.00;45.78;;;;;;;4.07;71.29;101571.90;1769962;81;20946;-68
2021/04/01 01:00:23;;;;;;;64.27;44.77;;;;;;;4.04;71.57;101572.81;1770006;81;20935;-67
2021/04/01 01:02:51;;;;;;;62.62;43.02;;;;;;;4.02;71.82;101566.80;1769925;81;21364;-66
2021/04/01 01:05:20;;;;;;;67.10;42.78;;;;;;;4.04;71.98;101565.48;1769911;80;21022;-68
2021/04/01 01:07:50;;;;;;;71.02;42.73;;;;;;;4.03;72.01;101565.92;1769992;81;20943;-67
2021/04/01 01:10:21;;;;;;;69.95;46.75;;;;;;;4.00;72.12;101563.37;1769966;81;20951;-68
2021/04/01 01:12:49;;;;;;;71.22;46.58;;;;;;;3.97;72.16;101566.03;1770036;79;20950;-68
2021/04/01 01:15:17;;;;;;;63.15;42.08;;;;;;;3.95;72.08;101562.16;1769962;81;21340;-67
2021/04/01 01:17:45;;;;;;;59.85;40.88;;;;;;;3.94;72.07;101552.67;1750855;81;21500;-67
2021/04/01 01:20:14;;;;;;;59.40;39.35;;;;;;;3.94;71.93;101559.61;1770029;81;20943;-68
2021/04/01 01:22:44;;;;;;;64.58;44.15;;;;;;;3.91;71.88;101557.92;1767030;79;21484;-69
2021/04/01 01:25:14;;;;;;;63.13;43.10;;;;;;;3.89;71.96;101558.39;1750613;81;21441;-70
2021/04/01 01:27:42;;;;;;;62.95;42.50;;;;;;;3.90;71.83;101557.49;1769941;81;21357;-68
2021/04/01 01:30:13;;;;;;;75.80;47.17;;;;;;;3.90;71.78;101554.89;1769897;81;21089;-67
2021/04/01 01:32:44;;;;;;;70.92;46.30;;;;;;;3.89;71.99;101557.51;1770015;81;21085;-68
2021/04/01 01:35:23;;;;;;;78.35;50.05;;;;;;;3.86;72.05;101552.38;1769949;81;21014;-68
2021/04/01 01:37:57;;;;;;;69.95;46.45;;;;;;;3.83;72.12;101559.78;1769940;81;20989;-68
2021/04/01 01:40:27;;;;;;;68.35;45.38;;;;;;;3.80;72.07;101547.30;1769974;79;21139;-68
2021/04/01 01:42:59;;;;;;;63.85;44.93;;;;;;;3.80;72.37;101549.88;1769880;80;20955;-68
2021/04/01 01:45:30;;;;;;;65.60;42.75;;;;;;;3.77;72.66;101548.20;1769419;80;20935;-68
2021/04/01 01:47:58;;;;;;;76.67;49.18;;;;;;;3.80;73.14;101545.99;1770018;79;21480;-68
2021/04/01 01:50:30;;;;;;;79.35;49.90;;;;;;;3.81;73.36;101539.94;1769959;81;21459;-70
2021/04/01 01:52:59;;;;;;;77.60;48.80;;;;;;;3.85;73.27;101538.56;1769983;80;21380;-69
2021/04/01 01:55:27;;;;;;;90.75;55.12;;;;;;;3.91;73.14;101541.47;1769701;81;21023;-69
2021/04/01 01:57:55;;;;;;;136.68;71.67;;;;;;;3.94;72.87;101538.39;1769914;81;20891;-69
2021/04/01 02:00:39;;;;;;;171.75;84.37;;;;;;;3.97;72.42;101540.08;1769901;80;21014;-67
2021/04/01 02:03:08;;;;;;;156.20;86.72;;;;;;;3.94;72.13;101538.84;1770092;81;21464;-68
2021/04/01 02:05:37;;;;;;;150.93;85.50;;;;;;;3.89;71.98;101539.34;1770048;81;21361;-68
2021/04/01 02:08:07;;;;;;;147.78;79.67;;;;;;;3.85;72.07;101541.60;1769925;81;20958;-68
2021/04/01 02:10:38;;;;;;;142.72;76.67;;;;;;;3.85;72.26;101535.97;1770022;81;20907;-68
2021/04/01 02:13:08;;;;;;;134.72;75.92;;;;;;;3.84;72.52;101536.83;1769866;81;20939;-68
2021/04/01 02:15:40;;;;;;;127.85;69.72;;;;;;;3.83;72.72;101531.69;1769880;81;20938;-67
2021/04/01 02:18:12;;;;;;;121.35;69.25;;;;;;;3.85;73.00;101533.38;1770012;81;21423;-67
2021/04/01 02:20:46;;;;;;;100.82;58.85;;;;;;;3.90;73.05;101530.25;1769946;81;21572;-69
2021/04/01 02:23:17;;;;;;;116.00;61.83;;;;;;;3.91;73.32;101521.59;1769972;81;20980;-70
2021/04/01 02:25:47;;;;;;;111.40;63.15;;;;;;;3.93;73.53;101526.32;1769929;80;20899;-69
2021/04/01 02:28:16;;;;;;;144.17;79.62;;;;;;;3.95;73.85;101527.56;1769918;81;21359;-68
2021/04/01 02:30:46;;;;;;;153.93;82.33;;;;;;;4.01;73.81;101522.27;1769921;80;21392;-69
2021/04/01 02:33:16;;;;;;;125.42;67.30;;;;;;;4.06;73.52;101513.11;1769842;81;20963;-68
2021/04/01 02:35:45;;;;;;;125.47;67.47;;;;;;;4.09;73.34;101513.03;1769956;79;21405;-68
2021/04/01 02:38:13;;;;;;;114.03;60.95;;;;;;;4.11;73.36;101508.25;1769863;81;20955;-69
2021/04/01 02:40:42;;;;;;;105.47;59.63;;;;;;;4.17;73.34;101507.72;1769899;79;21432;-69
2021/04/01 02:43:15;;;;;;;98.82;59.08;;;;;;;4.23;73.24;101503.71;1769851;81;21472;-68
2021/04/01 02:45:42;;;;;;;107.22;61.83;;;;;;;4.28;73.18;101504.02;1769799;79;21037;-67
2021/04/01 02:48:11;;;;;;;109.05;62.53;;;;;;;4.31;72.97;101499.20;1769867;81;21448;-68
2021/04/01 02:50:42;;;;;;;102.32;59.23;;;;;;;4.30;72.76;101497.05;1769939;81;21030;-69
2021/04/01 02:53:10;;;;;;;92.62;54.13;;;;;;;4.32;72.67;101493.14;1769937;81;21030;-68
2021/04/01 02:55:38;;;;;;;89.32;53.00;;;;;;;4.30;72.77;101489.72;1769925;81;22292;-68
2021/04/01 02:58:07;;;;;;;89.55;51.00;;;;;;;4.28;72.91;101488.89;1769820;80;21480;-68
2021/04/01 03:00:37;;;;;;;94.85;55.60;;;;;;;4.26;73.01;101488.06;1769906;81;20938;-67
2021/04/01 03:05:34;;;;;;;91.40;54.58;;;;;;;4.23;73.29;101486.39;1770199;81;20950;-68
2021/04/01 03:08:03;;;;;;;95.57;55.80;;;;;;;4.27;73.33;101491.05;1770058;81;21002;-69
2021/04/01 03:10:31;;;;;;;90.45;52.62;;;;;;;4.28;73.43;101491.03;1770047;80;21483;-69
2021/04/01 03:12:59;;;;;;;86.25;51.58;;;;;;;4.29;73.25;101492.77;1770063;81;20912;-68
2021/04/01 03:15:28;;;;;;;80.90;50.40;;;;;;;4.30;73.08;101493.61;1770031;81;20935;-69
2021/04/01 03:17:55;;;;;;;90.67;51.73;;;;;;;4.31;72.86;101490.11;1769991;81;20919;-68
2021/04/01 03:20:24;;;;;;;77.08;47.25;;;;;;;4.34;72.69;101493.97;1770057;81;21369;-69
2021/04/01 03:22:51;;;;;;;76.87;49.40;;;;;;;4.35;72.75;101495.21;1769930;81;21006;-71
2021/04/01 03:25:21;;;;;;;77.10;49.73;;;;;;;4.37;72.85;101491.30;1770012;81;21060;-70
2021/04/01 03:27:49;;;;;;;82.30;50.20;;;;;;;4.40;73.01;101492.97;1769985;80;20895;-69
2021/04/01 03:30:18;;;;;;;80.50;52.13;;;;;;;4.43;72.85;101487.28;1770122;79;21441;-71
2021/04/01 03:32:47;;;;;;;83.78;53.80;;;;;;;4.48;72.63;101488.03;1770086;79;22278;-67
2021/04/01 03:35:20;;;;;;;77.42;49.00;;;;;;;4.49;72.44;101488.88;1769965;79;20971;-69
2021/04/01 03:37:50;;;;;;;92.10;52.95;;;;;;;4.46;72.56;101483.31;1770146;81;20950;-69
2021/04/01 03:40:21;;;;;;;77.15;47.17;;;;;;;4.47;72.54;101486.34;1769949;79;20943;-68
2021/04/01 03:42:49;;;;;;;76.92;46.75;;;;;;;4.51;72.53;101483.22;1770152;81;21356;-69
2021/04/01 03:45:18;;;;;;;85.75;50.35;;;;;;;4.53;72.62;101479.69;1774018;80;22060;-68
2021/04/01 03:47:47;;;;;;;92.35;49.73;;;;;;;4.57;72.76;101476.59;1777752;80;20982;-69
2021/04/01 03:50:15;;;;;;;86.97;50.43;;;;;;;4.63;72.89;101473.03;1778521;79;20934;-68
2021/04/01 03:52:43;;;;;;;92.08;57.53;;;;;;;4.71;72.89;101477.59;1778414;80;20990;-69
2021/04/01 03:55:37;;;;;;;74.00;48.42;;;;;;;4.84;72.84;101471.23;1778490;80;20986;-69
2021/04/01 03:58:37;;;;;;;70.08;48.17;;;;;;;4.96;72.63;101472.73;1777174;80;21368;-67
2021/04/01 04:00:32;;;;;;;81.97;51.83;;;;;;;5.15;72.25;101480.94;1769131;79;20959;-68
2021/04/01 04:03:11;;;;;;;76.20;49.42;;;;;;;5.31;71.83;101475.77;1778319;80;20954;-68
2021/04/01 04:06:00;;;;;;;73.25;48.40;;;;;;;5.49;71.32;101475.79;1776756;80;20934;-69
2021/04/01 04:09:09;;;;;;;62.67;43.05;;;;;;;5.71;70.88;101474.77;1776605;80;20915;-70
2021/04/01 04:16:07;;;;;;;101.27;49.40;;;;;;;6.05;69.64;101479.55;1778504;79;21025;-70
2021/04/01 04:18:34;;;;;;;83.67;53.15;;;;;;;6.09;69.56;101482.06;1778437;80;20990;-69
2021/04/01 04:21:04;;;;;;;89.40;49.18;;;;;;;6.13;69.54;101480.20;1778514;79;20942;-71
2021/04/01 04:23:33;;;;;;;78.47;48.70;;;;;;;6.14;69.60;101481.48;1778460;80;21456;-71
2021/04/01 04:26:01;;;;;;;84.77;50.83;;;;;;;6.16;69.74;101485.34;1778428;80;21057;-71
2021/04/01 04:28:32;;;;;;;73.72;46.18;;;;;;;6.17;69.93;101478.77;1778515;80;21366;-69
2021/04/01 04:31:01;;;;;;;70.37;46.73;;;;;;;6.25;70.08;101484.21;1778467;80;20939;-69
2021/04/01 04:33:30;;;;;;;76.45;48.63;;;;;;;6.33;70.36;101482.25;1778543;80;20895;-68
2021/04/01 04:35:58;;;;;;;73.15;45.63;;;;;;;6.42;70.75;101476.34;1778452;79;21373;-79
2021/04/01 04:38:27;;;;;;;66.70;47.13;;;;;;;6.52;71.03;101480.83;1778421;80;20947;-77
2021/04/01 04:40:57;;;;;;;65.42;47.40;;;;;;;6.61;71.01;101477.95;1778486;80;20922;-79
2021/04/01 04:43:29;;;;;;;70.10;44.93;;;;;;;6.72;70.99;101475.48;1778400;80;20950;-78
2021/04/01 04:45:58;;;;;;;57.88;42.70;;;;;;;6.81;70.85;101477.35;1778586;79;21451;-78
2021/04/01 04:48:26;;;;;;;58.90;42.38;;;;;;;6.93;70.83;101477.87;1778296;80;22054;-77
2021/04/01 04:50:56;;;;;;;65.22;43.68;;;;;;;7.01;70.76;101473.28;1778203;79;20958;-78
2021/04/01 04:53:25;;;;;;;69.35;46.20;;;;;;;7.10;70.71;101473.45;1778446;80;20923;-78
2021/04/01 04:56:13;;;;;;;62.98;44.83;;;;;;;7.22;70.46;101470.42;1778477;80;20962;-78
2021/04/01 04:58:41;;;;;;;53.02;38.58;;;;;;;7.37;70.14;101471.23;1777063;79;21018;-69
2021/04/01 05:01:10;;;;;;;62.83;36.75;;;;;;;7.52;69.85;101470.34;1777246;80;21450;-79
2021/04/01 05:09:04;;;;;;;52.27;41.00;;;;;;;7.97;69.22;101472.27;1778481;80;21050;-78
2021/04/01 05:11:33;;;;;;;57.90;41.50;;;;;;;8.14;69.01;101469.91;1778303;80;21018;-81
2021/04/01 05:14:02;;;;;;;58.98;40.50;;;;;;;8.27;68.49;101468.98;1778453;80;21603;-80
2021/04/01 05:16:31;;;;;;;56.60;40.90;;;;;;;8.39;68.05;101469.00;1778332;80;21097;-79
2021/04/01 05:19:01;;;;;;;92.27;44.83;;;;;;;8.50;67.66;101462.48;1778346;80;20943;-78
2021/04/01 05:21:46;;;;;;;53.98;40.92;;;;;;;8.64;67.26;101458.03;1778323;80;20946;-78
2021/04/01 05:24:08;;;;;;;75.22;46.50;;;;;;;8.78;66.93;101461.88;1777185;79;21026;-81
2021/04/01 05:29:08;;;;;;;85.80;43.78;;;;;;;9.00;66.33;101460.12;1778479;80;21013;-83
2021/04/01 05:31:37;;;;;;;91.20;65.22;;;;;;;9.14;66.07;101460.89;1778563;80;21400;-81
2021/04/01 05:34:04;;;;;;;96.35;70.65;;;;;;;9.28;65.77;101460.33;1778518;80;21038;-83
2021/04/01 05:36:35;;;;;;;89.42;66.77;;;;;;;9.38;65.58;101459.02;1778663;80;20959;-82
2021/04/01 05:39:03;;;;;;;74.42;56.77;;;;;;;9.52;65.17;101460.61;1753493;80;22386;-83
2021/04/01 05:41:31;;;;;;;61.58;45.98;;;;;;;9.68;64.69;101458.66;1753196;80;21531;-85
2021/04/01 05:46:44;;;;;;;49.67;40.15;;;;;;;9.90;63.79;101458.12;1778610;80;21077;-81
2021/04/01 06:00:35;;;;;;;53.52;39.38;;;;;;;10.36;62.68;101448.70;1778383;80;20935;-80
2021/04/01 06:05:40;;;;;;;;;;;;;;;10.47;62.36;101437.70;1781047;80;21198;-78
2021/04/01 06:08:09;;;;;;;52.00;42.85;;;;;;;10.50;61.80;101442.82;1778479;80;20452;-79
2021/04/01 06:10:40;;;;;;;55.58;41.48;;;;;;;10.50;61.59;101437.58;1753127;80;20936;-81
2021/04/01 06:13:15;;;;;;;58.63;45.55;;;;;;;10.53;61.58;101441.35;1778182;80;20907;-80
2021/04/01 06:15:49;;;;;;;57.60;43.60;;;;;;;10.63;61.58;101436.08;1778621;80;21579;-81
2021/04/01 06:18:21;;;;;;;58.73;44.35;;;;;;;10.79;61.07;101433.10;1778878;80;22361;-81
2021/04/01 06:20:50;;;;;;;62.30;42.73;;;;;;;10.97;60.70;101441.02;1778766;80;21472;-82
2021/04/01 06:23:29;;;;;;;52.85;42.10;;;;;;;11.19;60.23;101435.10;1778650;79;20930;-80
2021/04/01 06:25:59;;;;;;;50.43;40.40;;;;;;;11.54;59.83;101436.44;1778885;80;20946;-81
2021/04/01 06:28:44;;;;;;;49.65;38.30;;;;;;;12.18;59.72;101432.25;1778949;80;21321;-81
2021/04/01 06:31:11;;;;;;;53.08;40.80;;;;;;;12.92;57.50;101436.55;1753361;80;21383;-80
2021/04/01 06:33:49;;;;;;;48.58;37.90;;;;;;;13.60;55.94;101434.80;1753493;80;20970;-83
2021/04/01 06:36:20;;;;;;;40.38;34.67;;;;;;;14.10;54.03;101434.38;1778455;79;20978;-83
2021/04/01 06:38:50;;;;;;;51.23;36.03;;;;;;;14.55;53.14;101430.30;1778434;80;20930;-76
2021/04/01 06:41:24;;;;;;;45.10;37.03;;;;;;;15.10;52.28;101416.16;1778362;79;20929;-69
2021/04/01 06:44:30;;;;;;;43.38;36.85;;;;;;;15.75;50.96;101420.59;1778439;80;21431;-70
2021/04/01 06:47:04;;;;;;;47.20;36.75;;;;;;;16.47;48.64;101424.41;1778363;80;20958;-69
2021/04/01 06:49:49;;;;;;;41.13;34.53;;;;;;;17.22;47.69;101421.56;1778469;80;21594;-69
2021/04/01 06:52:18;;;;;;;40.15;31.73;;;;;;;17.76;45.64;101424.08;1775908;79;20955;-70
2021/04/01 06:55:31;;;;;;;41.88;33.73;;;;;;;18.25;44.71;101418.92;1778319;80;20927;-68
2021/04/01 07:00:35;;;;;;;35.83;31.48;;;;;;;19.27;41.62;101407.52;1813485;77;22576;-73
2021/04/01 07:03:12;;;;;;;34.83;31.27;;;;;;;19.65;41.52;101410.06;1782322;79;20950;-76
2021/04/01 07:05:50;;;;;;;34.45;30.52;;;;;;;20.12;39.77;101410.94;1784695;80;21334;-74
2021/04/01 07:08:25;;;;;;;31.75;28.35;;;;;;;20.50;38.98;101397.73;1784383;80;20933;-76
2021/04/01 07:11:01;;;;;;;;;;;;;;;20.89;37.64;101401.78;1786812;80;21009;-77
2021/04/01 07:13:35;;;;;;;25.25;22.40;;;;;;;21.20;37.34;101400.80;1783931;80;20146;-77
2021/04/01 07:16:36;;;;;;;29.50;22.80;;;;;;;21.39;37.20;101395.44;1745184;81;21356;-79
2021/04/01 07:48:00;;;;;;;17.00;13.18;;;;;;;24.12;31.73;101358.11;1747018;81;21327;-73
2021/04/01 07:50:37;;;;;;;15.58;13.70;;;;;;;24.21;30.66;101353.58;1746934;81;20998;-73
2021/04/01 07:53:06;;;;;;;14.07;12.85;;;;;;;24.41;29.67;101349.63;1746960;81;20951;-76
2021/04/01 07:56:12;;;;;;;14.28;12.63;;;;;;;24.50;29.78;101345.16;1747018;82;20899;-82
2021/04/01 07:59:01;;;;;;;16.45;12.98;;;;;;;24.70;29.97;101344.81;1746438;81;21033;-77
2021/04/01 08:04:09;;;;;;;14.38;12.58;;;;;;;24.77;29.88;101337.28;1748179;81;21002;-76
2021/04/01 08:06:38;;;;;;;14.58;13.18;;;;;;;24.96;28.98;101330.72;1747090;81;20974;-75
2021/04/01 08:09:09;;;;;;;14.70;13.20;;;;;;;25.11;29.08;101327.36;1747571;81;21002;-76
2021/04/01 08:11:45;;;;;;;17.80;13.95;;;;;;;25.12;28.67;101319.12;1746857;81;21109;-77
2021/04/01 08:14:22;;;;;;;18.27;14.05;;;;;;;25.19;29.25;101323.33;1747229;81;21334;-78
2021/04/01 08:16:56;;;;;;;18.67;13.95;;;;;;;25.39;28.42;101314.39;1746346;81;20978;-76
2021/04/01 08:19:24;;;;;;;15.70;11.73;;;;;;;25.54;27.56;101306.46;1746309;82;20974;-77
2021/04/01 08:21:54;;;;;;;13.62;11.97;;;;;;;25.41;27.49;101312.38;1742808;81;20954;-77
2021/04/01 08:24:36;;;;;;;13.72;12.20;;;;;;;25.36;27.83;101310.72;1756776;80;21152;-76
2021/04/01 08:27:17;;;;;;;23.38;15.10;;;;;;;25.41;28.18;101311.89;1757778;80;21916;-75
2021/04/01 08:30:48;;;;;;;18.50;12.33;;;;;;;25.55;27.28;101313.02;1761542;80;21097;-76
2021/04/01 08:34:52;;;;;;;14.58;11.95;;;;;;;25.67;28.51;101305.91;1758079;80;20949;-75
2021/04/01 08:37:22;;;;;;;11.45;10.43;;;;;;;25.90;27.21;101296.59;1758410;80;21372;-76
2021/04/01 08:39:53;;;;;;;13.08;11.38;;;;;;;26.12;27.83;101290.92;1758237;80;21366;-79
2021/04/01 08:42:55;;;;;;;49.65;40.40;;;;;;;26.28;26.44;101289.48;1758393;80;20993;-79
2021/04/01 08:45:51;;;;;;;23.83;21.02;;;;;;;26.23;25.79;101287.81;1757598;80;21072;-81
2021/04/01 08:49:01;;;;;;;13.30;12.00;;;;;;;26.09;26.03;101281.36;1721248;80;20993;-80
2021/04/01 08:52:16;;;;;;;17.37;12.37;;;;;;;26.06;26.29;101280.39;1748710;80;21422;-80
2021/04/01 08:55:14;;;;;;;12.60;11.45;;;;;;;26.01;25.88;101274.69;1762772;80;21321;-79
2021/04/01 08:57:57;;;;;;;12.25;10.95;;;;;;;25.88;26.42;101265.02;1762739;80;20907;-80
2021/04/01 09:00:27;;;;;;;13.95;12.55;;;;;;;25.96;26.18;101256.92;1763182;80;20957;-80
2021/04/01 09:02:58;;;;;;;15.68;11.68;;;;;;;25.96;25.27;101265.81;1762655;80;21013;-81
2021/04/01 09:05:31;;;;;;;12.10;10.97;;;;;;;25.93;26.03;101258.62;1763064;81;20969;-77
2021/04/01 09:08:03;;;;;;;11.75;10.65;;;;;;;26.08;25.30;101252.82;1734034;81;21443;-82
2021/04/01 09:15:50;;;;;;;13.30;12.03;;;;;;;26.07;25.10;101245.75;1733507;80;20958;-79
2021/04/01 09:18:23;;;;;;;15.55;12.88;;;;;;;25.81;25.60;101229.45;1762711;80;21036;-81
2021/04/01 09:20:54;;;;;;;14.95;13.35;;;;;;;25.51;25.88;101235.13;1762743;80;21363;-81
2021/04/01 09:23:35;;;;;;;13.05;10.43;;;;;;;25.26;26.28;101228.17;1736224;81;20962;-78
2021/04/01 09:26:05;;;;;;;13.05;10.13;;;;;;;25.17;26.05;101224.69;1765626;81;20938;-77
2021/04/01 09:28:38;;;;;;;9.83;8.93;;;;;;;25.10;25.97;101223.20;1765699;81;20926;-78
2021/04/01 09:31:06;;;;;;;9.60;8.70;;;;;;;25.17;25.83;101220.14;1765522;80;20949;-77
2021/04/01 09:33:36;;;;;;;9.40;8.60;;;;;;;25.24;25.83;101216.30;1765744;81;21379;-79
2021/04/01 09:36:22;;;;;;;9.55;8.65;;;;;;;25.19;24.89;101209.24;1765653;80;20954;-70
2021/04/01 09:39:09;;;;;;;14.53;11.75;;;;;;;25.32;25.24;101195.27;1765545;80;21001;-74
2021/04/01 09:41:34;;;;;;;13.90;11.00;;;;;;;25.62;25.28;101196.30;1764617;80;21025;-75
2021/04/01 09:44:07;;;;;;;15.78;11.45;;;;;;;25.67;25.85;101197.11;1765887;81;20950;-76
2021/04/01 09:46:36;;;;;;;14.40;11.88;;;;;;;25.63;25.27;101197.96;1765869;81;21194;-74
2021/04/01 09:49:08;;;;;;;14.23;12.45;;;;;;;25.56;25.58;101191.62;1765629;80;20926;-76
2021/04/01 09:51:36;;;;;;;14.53;11.43;;;;;;;25.49;25.30;101185.30;1765769;81;21053;-75
2021/04/01 09:54:05;;;;;;;15.58;11.68;;;;;;;25.41;25.82;101176.28;1748835;81;20930;-76
2021/04/01 09:56:33;;;;;;;10.48;9.38;;;;;;;25.48;26.43;101183.61;1765682;81;20922;-77
2021/04/01 09:59:01;;;;;;;13.75;9.93;;;;;;;25.53;26.01;101176.70;1765737;80;21732;-76
2021/04/01 10:01:30;;;;;;;11.73;9.20;;;;;;;25.53;25.42;101171.84;1765768;81;21009;-77
2021/04/01 10:04:21;;;;;;;11.28;9.23;;;;;;;25.42;24.84;101165.02;1765777;81;21629;-72
2021/04/01 10:06:50;;;;;;;9.08;8.15;;;;;;;25.30;25.01;101165.93;1773327;80;21586;-74
2021/04/01 10:09:24;;;;;;;10.30;9.13;;;;;;;25.10;24.97;101161.46;1765794;80;21017;-73
2021/04/01 10:11:58;;;;;;;;;;;;;;;25.01;25.02;101154.42;1768233;80;21379;-78
2021/04/01 10:14:29;;;;;;;10.45;8.75;;;;;;;24.78;25.24;101151.16;1765532;80;20130;-80
2021/04/01 10:17:07;;;;;;;13.95;10.03;;;;;;;24.55;25.00;101149.71;1763196;81;21097;-79
2021/04/01 10:19:40;;;;;;;16.20;12.20;;;;;;;24.43;25.75;101145.66;1765610;80;20945;-79
2021/04/01 10:22:32;;;;;;;15.32;12.78;;;;;;;24.38;26.48;101149.37;1765763;81;20953;-79
2021/04/01 10:25:17;;;;;;;17.48;11.18;;;;;;;24.37;27.14;101141.01;1749285;80;21128;-79
2021/04/01 10:27:52;;;;;;;12.13;10.95;;;;;;;24.29;27.46;101140.50;1745911;82;21076;-77
2021/04/01 10:30:19;;;;;;;14.43;11.90;;;;;;;24.34;27.25;101131.44;1745954;81;20963;-80
2021/04/01 10:33:02;;;;;;;16.30;10.88;;;;;;;24.36;26.31;101125.91;1721654;82;21368;-78
2021/04/01 10:35:31;;;;;;;11.85;8.43;;;;;;;24.36;26.14;101124.57;1746149;81;20990;-81
2021/04/01 10:38:00;;;;;;;11.50;9.43;;;;;;;24.32;25.36;101125.44;1721828;82;21018;-71
2021/04/01 10:40:31;;;;;;;13.30;9.25;;;;;;;24.22;25.79;101123.94;1746223;82;21045;-75
2021/04/01 10:43:08;;;;;;;13.45;9.15;;;;;;;24.17;25.84;101115.06;1746251;81;21002;-71
2021/04/01 10:45:38;;;;;;;11.53;8.65;;;;;;;24.23;26.42;101114.36;1746246;81;20970;-72
2021/04/01 10:48:30;;;;;;;14.33;11.55;;;;;;;24.22;26.03;101108.69;1746324;81;20954;-73
2021/04/01 10:51:03;;;;;;;9.73;8.45;;;;;;;24.24;26.11;101095.95;1746233;81;21350;-73
2021/04/01 10:53:30;;;;;;;11.22;9.48;;;;;;;24.36;25.51;101102.61;1721291;82;21054;-74
2021/04/01 10:56:04;;;;;;;10.60;8.13;;;;;;;24.44;25.38;101096.92;1746197;81;21006;-72
2021/04/01 10:58:32;;;;;;;10.32;7.90;;;;;;;24.55;25.33;101092.06;1746287;81;28397;-73
2021/04/01 11:01:02;;;;;;;8.05;6.97;;;;;;;24.70;25.45;101088.64;1746372;81;21528;-74
2021/04/01 11:03:39;;;;;;;8.55;7.28;;;;;;;24.78;25.25;101084.09;1746330;82;22261;-72
2021/04/01 11:06:05;;;;;;;10.15;8.28;;;;;;;24.84;23.44;101078.55;1721694;82;20970;-76
2021/04/01 11:08:40;;;;;;;10.43;7.47;;;;;;;24.63;23.71;101076.94;1746283;81;20954;-72
2021/04/01 11:11:09;;;;;;;8.53;7.08;;;;;;;24.31;23.96;101078.68;1746256;81;21064;-76
2021/04/01 11:13:42;;;;;;;10.98;7.08;;;;;;;24.06;24.57;101080.58;1746280;81;20935;-74
2021/04/01 11:16:15;;;;;;;12.90;8.08;;;;;;;23.86;25.24;101072.05;1746425;81;21422;-73
2021/04/01 11:18:49;;;;;;;8.58;6.67;;;;;;;23.62;25.30;101066.15;1747898;81;21403;-75
2021/04/01 11:21:23;;;;;;;9.53;7.15;;;;;;;23.42;25.41;101062.44;1747164;81;20986;-75
2021/04/01 11:24:00;;;;;;;8.28;6.20;;;;;;;23.16;25.86;101057.20;1729086;81;21005;-73
2021/04/01 11:26:28;;;;;;;8.25;7.30;;;;;;;22.90;25.73;101045.22;1748926;81;20990;-74
2021/04/01 11:29:00;;;;;;;11.90;6.92;;;;;;;22.59;26.47;101045.80;1765719;81;21413;-73
2021/04/01 11:31:30;;;;;;;9.10;8.13;;;;;;;22.34;26.70;101052.35;1765645;81;21490;-75
2021/04/01 11:33:59;;;;;;;9.70;7.33;;;;;;;22.15;27.37;101041.33;1765550;81;20994;-73
2021/04/01 11:36:33;;;;;;;17.98;13.13;;;;;;;21.97;28.00;101035.72;1765605;80;21435;-75
2021/04/01 11:39:03;;;;;;;12.47;9.25;;;;;;;21.84;28.93;101028.94;1765553;81;21084;-75
2021/04/01 11:41:31;;;;;;;7.80;6.10;;;;;;;21.66;27.42;101029.47;1763739;80;21371;-74
2021/04/01 11:44:00;;;;;;;8.68;6.75;;;;;;;21.41;26.70;101023.92;1765511;79;21558;-75
2021/04/01 11:46:30;;;;;;;10.82;6.33;;;;;;;21.19;27.09;101018.52;1765757;80;21021;-76
2021/04/01 11:49:00;;;;;;;8.38;6.47;;;;;;;21.01;27.24;101014.50;1748929;81;21033;-74
2021/04/01 11:51:33;;;;;;;11.73;7.12;;;;;;;20.82;27.79;101010.11;1765756;81;20958;-76
2021/04/01 11:54:04;;;;;;;11.63;7.65;;;;;;;20.66;27.71;101000.59;1765775;80;22297;-76
2021/04/01 11:56:38;;;;;;;11.75;8.88;;;;;;;20.50;28.13;100996.71;1765642;80;20965;-76
2021/04/01 11:59:15;;;;;;;12.33;8.50;;;;;;;20.39;28.71;100997.41;1765526;80;20969;-76
2021/04/01 12:02:10;;;;;;;9.28;8.13;;;;;;;20.25;28.77;100990.23;1765683;81;20950;-78
2021/04/01 12:04:44;;;;;;;11.70;7.65;;;;;;;20.11;29.20;100989.36;1765703;80;21013;-74
2021/04/01 12:07:09;;;;;;;9.88;7.92;;;;;;;19.97;29.40;100979.19;1765425;80;21421;-75
2021/04/01 12:09:40;;;;;;;11.70;8.25;;;;;;;19.90;29.46;100984.25;1748773;81;21041;-75
2021/04/01 12:12:10;;;;;;;11.75;7.55;;;;;;;19.82;29.86;100975.63;1765575;80;20986;-75
2021/04/01 12:14:39;;;;;;;13.20;8.38;;;;;;;19.77;30.25;100970.41;1765616;80;21041;-74
2021/04/01 12:17:07;;;;;;;13.32;8.18;;;;;;;19.75;30.32;100972.37;1765555;80;21294;-75
2021/04/01 12:19:36;;;;;;;12.35;8.58;;;;;;;19.74;30.69;100974.67;1765692;81;21716;-77
2021/04/01 12:22:10;;;;;;;10.80;8.05;;;;;;;19.69;31.28;100961.80;1724825;81;20966;-79
2021/04/01 12:24:39;;;;;;;15.35;9.70;;;;;;;19.69;31.05;100961.80;1757377;80;21014;-76
2021/04/01 12:27:08;;;;;;;16.30;8.93;;;;;;;19.65;30.25;100960.36;1698327;81;21042;-77
2021/04/01 12:29:45;;;;;;;9.50;7.47;;;;;;;19.59;30.40;100955.64;1746360;81;20955;-76
2021/04/01 12:32:17;;;;;;;9.50;7.17;;;;;;;19.54;29.86;100950.75;1746379;82;21279;-76
2021/04/01 12:34:46;;;;;;;9.33;6.60;;;;;;;19.49;29.61;100950.31;1721757;82;20966;-78
2021/04/01 12:37:17;;;;;;;8.05;7.08;;;;;;;19.44;29.88;100950.73;1746498;81;20907;-79
2021/04/01 12:39:45;;;;;;;11.78;7.97;;;;;;;19.40;29.74;100948.00;1746394;81;20982;-79
2021/04/01 12:42:13;;;;;;;13.05;8.70;;;;;;;19.34;30.15;100938.42;1746489;81;21523;-79
2021/04/01 12:44:45;;;;;;;12.40;8.58;;;;;;;19.31;29.66;100940.05;1746448;81;22156;-78
2021/04/01 12:47:22;;;;;;;15.05;9.25;;;;;;;19.25;29.50;100934.78;1745701;81;28165;-77
2021/04/01 12:49:50;;;;;;;12.63;7.80;;;;;;;19.14;29.57;100933.60;1746391;81;21010;-78
2021/04/01 12:52:19;;;;;;;11.05;7.65;;;;;;;18.99;29.75;100929.21;1746355;81;21053;-79
2021/04/01 12:54:50;;;;;;;11.80;7.78;;;;;;;18.90;29.92;100924.23;1746388;81;20958;-80